New Philadelphia, OH

11:34 AM EDT on September 30, 2014 (GMT -0400)
Clever | Change Station
CLOSE
Current Station
Airport
Location: New Philadelphia,
Elevation: 892 ft
Nearby Weather Stations

Elev 892 ft 40.47 °N, 81.42 °W | Updated 41 minutes ago

Light Rain
Light Rain Mist
57 °F
Feels Like 57 °F
N
4
Wind Variable Wind from South

Today
High -- | Low -- °F
--% Chance of Precip.
Yesterday
High -- | Low -- °F
Precip. -- in
7:21 AM 7:09 PM
Waxing Crescent, 37% visible
Pressure 29.94 in
Visibility 1.2 miles
Clouds Scattered Clouds 5000 ft
Mostly Cloudy 7500 ft
Overcast 9000 ft
Dew Point 57 °F
Humidity 100%
Rainfall 0.11 in
Snow Depth Not available.
UV 1 out of 12
Pollen 1.80 out of 12
Air Quality Not available.
Flu Activity Not available.
METAR KPHD 301453Z AUTO 17003KT 1 1/4SM -RA BR SCT050 BKN075 OVC090 14/14 A2993 RMK AO2 RAB10 SLP136 P0011 60011 T01390139 50001

More Conditions Fewer Conditions

Pressure 29.94 in
Visibility 1.2 miles
Clouds Scattered Clouds 5000 ft
Mostly Cloudy 7500 ft
Overcast 9000 ft
Dew Point 57 °F
Humidity 100%
Rainfall 0.11 in
Snow Depth Not available.
UV 1 out of 12
Pollen 1.80 out of 12
Air Quality Not available.
Flu Activity Not available.
METAR KPHD 301453Z AUTO 17003KT 1 1/4SM -RA BR SCT050 BKN075 OVC090 14/14 A2993 RMK AO2 RAB10 SLP136 P0011 60011 T01390139 50001

More Conditions Fewer Conditions

10-Day Weather Forecast

Almanac

Astronomy

Sep. 30, 2014 Rise Set
Actual Time 7:21 AM EDT 7:09 PM EDT
Civil Twilight 6:53 AM EDT 7:36 PM EDT
Nautical Twilight 6:22 AM EDT 8:08 PM EDT
Astronomical Twilight 5:50 AM EDT 8:40 PM EDT
Moon 1:28 PM EDT 11:37 PM EDT
Length of Visible Light 12h 42m
Length of Day
11h 48m
Tomorrow will be 2m 39s shorter.
Waxing Crescent, 37% of the Moon is Illuminated
Today
Waxing Crescent
Oct 1
First Quarter
Oct 8
Full
Oct 15
Last Quarter
Oct 23
New

Today's Extremes

State Highs State Lows

Community

WunderPhotos

Upload Photos

1,757,669 photos uploaded!

Nearby

Snow Depth

Station Depth Elevation
No new snow has been reported.

Earthquake Activity

City Distance Mag. Time & Date
No recent earthquake activity has been reported nearby.
Minimum magnitude displayed is 2.5.

Coastal Water Temperatures

Place Temperature
No Stations Reporting

Nearby Weather Stations